Terminal Aerodrome Forecast
Issued by NWS Mt. Holly, NJ

Home | Current Version | Previous Version | Text Only | Print | Product List | Glossary On
Versions: 1 2 3 4 5 6 7 8 9 10 11 12 13 14 15 16 17 18 19 20 21 22 23 24 25 26 27 28 29 30 31 32 33
000
FTUS41 KPHI 251729
TAFABE
TAF
KABE 251729Z 2518/2618 22008KT P6SM SCT050
     FM251900 25009G20KT P6SM VCTS SCT040CB BKN150
      TEMPO 2520/2522 32015G30KT 3SM TSRA SCT020 OVC040CB
     FM252300 26005KT P6SM SCT150
     FM260800 VRB02KT 5SM BR SCT100
     FM261500 29007KT P6SM SCT050=

USA.gov is the U.S. government's official web portal to all federal, state and local government web resources and services.